sensor_id;sensor_type;location;lat;lon;timestamp;pressure;altitude;pressure_sealevel;temperature;humidity
72210;BME280;60113;48.762;12.302;2023-11-21T00:01:17;96718.28;;;4.31;100.00
72210;BME280;60113;48.762;12.302;2023-11-21T00:03:44;96717.53;;;4.29;100.00
72210;BME280;60113;48.762;12.302;2023-11-21T00:06:09;96717.63;;;4.28;100.00
72210;BME280;60113;48.762;12.302;2023-11-21T00:08:36;96718.53;;;4.27;100.00
72210;BME280;60113;48.762;12.302;2023-11-21T00:11:05;96712.53;;;4.26;100.00
72210;BME280;60113;48.762;12.302;2023-11-21T00:13:31;96717.63;;;4.28;100.00
72210;BME280;60113;48.762;12.302;2023-11-21T00:15:59;96722.84;;;4.28;100.00
72210;BME280;60113;48.762;12.302;2023-11-21T00:18:26;96716.78;;;4.27;100.00
72210;BME280;60113;48.762;12.302;2023-11-21T00:20:56;96711.59;;;4.27;100.00
72210;BME280;60113;48.762;12.302;2023-11-21T00:23:24;96711.66;;;4.25;100.00
72210;BME280;60113;48.762;12.302;2023-11-21T00:25:49;96703.88;;;4.25;100.00
72210;BME280;60113;48.762;12.302;2023-11-21T00:28:15;96706.38;;;4.27;100.00
72210;BME280;60113;48.762;12.302;2023-11-21T00:30:40;96707.94;;;4.30;100.00
72210;BME280;60113;48.762;12.302;2023-11-21T00:33:05;96710.47;;;4.31;100.00
72210;BME280;60113;48.762;12.302;2023-11-21T00:35:31;96705.06;;;4.34;100.00
72210;BME280;60113;48.762;12.302;2023-11-21T00:37:57;96708.44;;;4.36;100.00
72210;BME280;60113;48.762;12.302;2023-11-21T00:40:23;96705.75;;;4.38;100.00
72210;BME280;60113;48.762;12.302;2023-11-21T00:42:50;96709.09;;;4.40;100.00
72210;BME280;60113;48.762;12.302;2023-11-21T00:45:15;96713.28;;;4.43;100.00
72210;BME280;60113;48.762;12.302;2023-11-21T00:47:41;96717.44;;;4.45;100.00
72210;BME280;60113;48.762;12.302;2023-11-21T00:50:08;96713.84;;;4.48;100.00
72210;BME280;60113;48.762;12.302;2023-11-21T00:52:34;96715.41;;;4.50;100.00
72210;BME280;60113;48.762;12.302;2023-11-21T00:55:00;96722.19;;;4.53;100.00
72210;BME280;60113;48.762;12.302;2023-11-21T00:57:27;96716.91;;;4.55;100.00
72210;BME280;60113;48.762;12.302;2023-11-21T00:59:53;96721.09;;;4.57;100.00
72210;BME280;60113;48.762;12.302;2023-11-21T01:02:19;96718.50;;;4.57;100.00
72210;BME280;60113;48.762;12.302;2023-11-21T01:04:45;96720.25;;;4.57;100.00
72210;BME280;60113;48.762;12.302;2023-11-21T01:07:10;96715.91;;;4.57;100.00
72210;BME280;60113;48.762;12.302;2023-11-21T01:09:35;96716.72;;;4.58;100.00
72210;BME280;60113;48.762;12.302;2023-11-21T01:12:01;96725.38;;;4.58;100.00
72210;BME280;60113;48.762;12.302;2023-11-21T01:14:27;96716.63;;;4.59;100.00
72210;BME280;60113;48.762;12.302;2023-11-21T01:16:53;96715.72;;;4.60;100.00
72210;BME280;60113;48.762;12.302;2023-11-21T01:19:19;96711.31;;;4.61;100.00
72210;BME280;60113;48.762;12.302;2023-11-21T01:21:44;96710.41;;;4.62;100.00
72210;BME280;60113;48.762;12.302;2023-11-21T01:24:09;96709.56;;;4.61;100.00
72210;BME280;60113;48.762;12.302;2023-11-21T01:26:36;96703.50;;;4.61;100.00
72210;BME280;60113;48.762;12.302;2023-11-21T01:29:01;96709.66;;;4.60;100.00
72210;BME280;60113;48.762;12.302;2023-11-21T01:31:27;96714.00;;;4.59;100.00
72210;BME280;60113;48.762;12.302;2023-11-21T01:33:58;96714.19;;;4.56;100.00
72210;BME280;60113;48.762;12.302;2023-11-21T01:36:30;96715.13;;;4.55;100.00
72210;BME280;60113;48.762;12.302;2023-11-21T01:38:57;96714.38;;;4.53;100.00
72210;BME280;60113;48.762;12.302;2023-11-21T01:41:26;96719.69;;;4.52;100.00
72210;BME280;60113;48.762;12.302;2023-11-21T01:43:52;96718.97;;;4.49;100.00
72210;BME280;60113;48.762;12.302;2023-11-21T01:46:20;96710.41;;;4.47;100.00
72210;BME280;60113;48.762;12.302;2023-11-21T01:48:47;96716.63;;;4.45;100.00
72210;BME280;60113;48.762;12.302;2023-11-21T01:51:13;96717.53;;;4.44;100.00
72210;BME280;60113;48.762;12.302;2023-11-21T01:53:39;96719.50;;;4.40;100.00
72210;BME280;60113;48.762;12.302;2023-11-21T01:56:05;96718.75;;;4.38;100.00
72210;BME280;60113;48.762;12.302;2023-11-21T01:58:33;96715.41;;;4.36;100.00
72210;BME280;60113;48.762;12.302;2023-11-21T02:00:59;96710.38;;;4.33;100.00
72210;BME280;60113;48.762;12.302;2023-11-21T02:03:29;96709.75;;;4.29;100.00
72210;BME280;60113;48.762;12.302;2023-11-21T02:05:55;96715.03;;;4.28;100.00
72210;BME280;60113;48.762;12.302;2023-11-21T02:08:21;96708.22;;;4.25;100.00
72210;BME280;60113;48.762;12.302;2023-11-21T02:10:47;96704.06;;;4.22;100.00
72210;BME280;60113;48.762;12.302;2023-11-21T02:13:14;96705.81;;;4.22;100.00
72210;BME280;60113;48.762;12.302;2023-11-21T02:15:40;96705.91;;;4.20;100.00
72210;BME280;60113;48.762;12.302;2023-11-21T02:18:06;96708.50;;;4.20;100.00
72210;BME280;60113;48.762;12.302;2023-11-21T02:20:32;96714.63;;;4.19;100.00
72210;BME280;60113;48.762;12.302;2023-11-21T02:23:00;96713.69;;;4.20;100.00
72210;BME280;60113;48.762;12.302;2023-11-21T02:25:32;96708.50;;;4.20;100.00
72210;BME280;60113;48.762;12.302;2023-11-21T02:28:00;96705.09;;;4.20;100.00
72210;BME280;60113;48.762;12.302;2023-11-21T02:30:26;96697.28;;;4.20;100.00
72210;BME280;60113;48.762;12.302;2023-11-21T02:32:53;96694.69;;;4.20;100.00
72210;BME280;60113;48.762;12.302;2023-11-21T02:35:20;96693.81;;;4.19;100.00
72210;BME280;60113;48.762;12.302;2023-11-21T02:37:49;96692.97;;;4.19;100.00
72210;BME280;60113;48.762;12.302;2023-11-21T02:40:15;96687.88;;;4.17;100.00
72210;BME280;60113;48.762;12.302;2023-11-21T02:42:47;96691.41;;;4.16;100.00
72210;BME280;60113;48.762;12.302;2023-11-21T02:45:13;96685.38;;;4.16;100.00
72210;BME280;60113;48.762;12.302;2023-11-21T02:47:39;96689.75;;;4.15;100.00
72210;BME280;60113;48.762;12.302;2023-11-21T02:50:06;96688.06;;;4.14;100.00
72210;BME280;60113;48.762;12.302;2023-11-21T02:52:33;96695.84;;;4.14;100.00
72210;BME280;60113;48.762;12.302;2023-11-21T02:54:59;96687.25;;;4.13;100.00
72210;BME280;60113;48.762;12.302;2023-11-21T02:57:24;96690.56;;;4.16;100.00
72210;BME280;60113;48.762;12.302;2023-11-21T02:59:50;96687.16;;;4.15;100.00
72210;BME280;60113;48.762;12.302;2023-11-21T03:02:16;96694.94;;;4.15;100.00
72210;BME280;60113;48.762;12.302;2023-11-21T03:04:42;96687.16;;;4.15;100.00
72210;BME280;60113;48.762;12.302;2023-11-21T03:07:08;96681.94;;;4.15;100.00
72210;BME280;60113;48.762;12.302;2023-11-21T03:09:35;96681.94;;;4.15;100.00
72210;BME280;60113;48.762;12.302;2023-11-21T03:12:00;96680.16;;;4.16;100.00
72210;BME280;60113;48.762;12.302;2023-11-21T03:14:29;96680.25;;;4.14;100.00
72210;BME280;60113;48.762;12.302;2023-11-21T03:16:54;96671.72;;;4.12;100.00
72210;BME280;60113;48.762;12.302;2023-11-21T03:19:21;96673.47;;;4.11;100.00
72210;BME280;60113;48.762;12.302;2023-11-21T03:21:47;96678.69;;;4.11;100.00
72210;BME280;60113;48.762;12.302;2023-11-21T03:24:12;96674.41;;;4.10;100.00
72210;BME280;60113;48.762;12.302;2023-11-21T03:26:38;96677.09;;;4.09;100.00
72210;BME280;60113;48.762;12.302;2023-11-21T03:29:03;96678.84;;;4.08;100.00
72210;BME280;60113;48.762;12.302;2023-11-21T03:31:30;96678.94;;;4.07;100.00
72210;BME280;60113;48.762;12.302;2023-11-21T03:33:55;96678.09;;;4.06;100.00
72210;BME280;60113;48.762;12.302;2023-11-21T03:36:20;96672.09;;;4.06;100.00
72210;BME280;60113;48.762;12.302;2023-11-21T03:38:47;96679.88;;;4.06;100.00
72210;BME280;60113;48.762;12.302;2023-11-21T03:41:13;96679.88;;;4.06;100.00
72210;BME280;60113;48.762;12.302;2023-11-21T03:43:39;96673.00;;;4.05;100.00
72210;BME280;60113;48.762;12.302;2023-11-21T03:46:05;96685.09;;;4.06;100.00
72210;BME280;60113;48.762;12.302;2023-11-21T03:48:31;96683.38;;;4.05;100.00
72210;BME280;60113;48.762;12.302;2023-11-21T03:50:58;96679.22;;;4.02;100.00
72210;BME280;60113;48.762;12.302;2023-11-21T03:53:23;96676.63;;;4.02;100.00
72210;BME280;60113;48.762;12.302;2023-11-21T03:55:49;96676.63;;;4.02;100.00
72210;BME280;60113;48.762;12.302;2023-11-21T03:58:18;96678.28;;;4.03;100.00
72210;BME280;60113;48.762;12.302;2023-11-21T04:00:43;96687.03;;;4.02;100.00
72210;BME280;60113;48.762;12.302;2023-11-21T04:03:09;96687.88;;;4.03;100.00
72210;BME280;60113;48.762;12.302;2023-11-21T04:05:35;96687.88;;;4.03;100.00
72210;BME280;60113;48.762;12.302;2023-11-21T04:08:00;96696.47;;;4.03;100.00
72210;BME280;60113;48.762;12.302;2023-11-21T04:10:27;96693.78;;;4.05;100.00
72210;BME280;60113;48.762;12.302;2023-11-21T04:12:53;96693.78;;;4.05;100.00
72210;BME280;60113;48.762;12.302;2023-11-21T04:15:18;96698.00;;;4.07;100.00
72210;BME280;60113;48.762;12.302;2023-11-21T04:17:43;96691.78;;;4.10;100.00
72210;BME280;60113;48.762;12.302;2023-11-21T04:20:10;96691.78;;;4.10;100.00
72210;BME280;60113;48.762;12.302;2023-11-21T04:22:40;96692.63;;;4.10;100.00
72210;BME280;60113;48.762;12.302;2023-11-21T04:25:10;96696.03;;;4.11;100.00
72210;BME280;60113;48.762;12.302;2023-11-21T04:27:38;96696.03;;;4.11;100.00
72210;BME280;60113;48.762;12.302;2023-11-21T04:30:03;96694.28;;;4.11;100.00
72210;BME280;60113;48.762;12.302;2023-11-21T04:32:29;96690.75;;;4.12;100.00
72210;BME280;60113;48.762;12.302;2023-11-21T04:34:55;96682.13;;;4.12;100.00
72210;BME280;60113;48.762;12.302;2023-11-21T04:37:20;96685.44;;;4.14;100.00
72210;BME280;60113;48.762;12.302;2023-11-21T04:39:46;96687.25;;;4.13;100.00
72210;BME280;60113;48.762;12.302;2023-11-21T04:42:12;96672.44;;;4.14;100.00
72210;BME280;60113;48.762;12.302;2023-11-21T04:44:37;96677.56;;;4.16;100.00
72210;BME280;60113;48.762;12.302;2023-11-21T04:47:07;96682.84;;;4.14;100.00
72210;BME280;60113;48.762;12.302;2023-11-21T04:49:33;96682.84;;;4.14;100.00
72210;BME280;60113;48.762;12.302;2023-11-21T04:51:58;96680.44;;;4.11;100.00
72210;BME280;60113;48.762;12.302;2023-11-21T04:54:24;96683.13;;;4.09;100.00
72210;BME280;60113;48.762;12.302;2023-11-21T04:56:49;96676.25;;;4.08;100.00
72210;BME280;60113;48.762;12.302;2023-11-21T04:59:14;96682.31;;;4.09;100.00
72210;BME280;60113;48.762;12.302;2023-11-21T05:01:40;96682.31;;;4.09;100.00
72210;BME280;60113;48.762;12.302;2023-11-21T05:04:05;96682.31;;;4.09;100.00
72210;BME280;60113;48.762;12.302;2023-11-21T05:06:31;96690.09;;;4.09;100.00
72210;BME280;60113;48.762;12.302;2023-11-21T05:08:59;96688.31;;;4.09;100.00
72210;BME280;60113;48.762;12.302;2023-11-21T05:11:25;96695.22;;;4.10;100.00
72210;BME280;60113;48.762;12.302;2023-11-21T05:13:51;96696.03;;;4.11;100.00
72210;BME280;60113;48.762;12.302;2023-11-21T05:16:16;96694.28;;;4.11;100.00
72210;BME280;60113;48.762;12.302;2023-11-21T05:18:41;96689.00;;;4.13;100.00
72210;BME280;60113;48.762;12.302;2023-11-21T05:21:07;96685.53;;;4.12;100.00
72210;BME280;60113;48.762;12.302;2023-11-21T05:23:33;96691.59;;;4.13;100.00
72210;BME280;60113;48.762;12.302;2023-11-21T05:25:59;96696.78;;;4.13;100.00
72210;BME280;60113;48.762;12.302;2023-11-21T05:28:24;96697.63;;;4.13;100.00
72210;BME280;60113;48.762;12.302;2023-11-21T05:30:50;96697.63;;;4.13;100.00
72210;BME280;60113;48.762;12.302;2023-11-21T05:33:17;96688.91;;;4.15;100.00
72210;BME280;60113;48.762;12.302;2023-11-21T05:35:43;96683.69;;;4.15;100.00
72210;BME280;60113;48.762;12.302;2023-11-21T05:38:08;96688.06;;;4.14;100.00
72210;BME280;60113;48.762;12.302;2023-11-21T05:40:34;96682.84;;;4.14;100.00
72210;BME280;60113;48.762;12.302;2023-11-21T05:42:59;96686.28;;;4.15;100.00
72210;BME280;60113;48.762;12.302;2023-11-21T05:45:24;96682.03;;;4.13;100.00
72210;BME280;60113;48.762;12.302;2023-11-21T05:47:50;96683.78;;;4.13;100.00
72210;BME280;60113;48.762;12.302;2023-11-21T05:50:16;96682.94;;;4.12;100.00
72210;BME280;60113;48.762;12.302;2023-11-21T05:52:44;96692.63;;;4.10;100.00
72210;BME280;60113;48.762;12.302;2023-11-21T05:55:12;96697.81;;;4.10;100.00
72210;BME280;60113;48.762;12.302;2023-11-21T05:57:39;96697.81;;;4.10;100.00
72210;BME280;60113;48.762;12.302;2023-11-21T06:00:10;96705.72;;;4.09;100.00
72210;BME280;60113;48.762;12.302;2023-11-21T06:02:49;96708.22;;;4.10;100.00
72210;BME280;60113;48.762;12.302;2023-11-21T06:05:23;96702.16;;;4.10;100.00
72210;BME280;60113;48.762;12.302;2023-11-21T06:07:50;96709.97;;;4.10;100.00
72210;BME280;60113;48.762;12.302;2023-11-21T06:10:16;96713.41;;;4.10;100.00
72210;BME280;60113;48.762;12.302;2023-11-21T06:12:44;96715.94;;;4.12;100.00
72210;BME280;60113;48.762;12.302;2023-11-21T06:15:11;96716.84;;;4.11;100.00
72210;BME280;60113;48.762;12.302;2023-11-21T06:17:40;96715.09;;;4.11;100.00
72210;BME280;60113;48.762;12.302;2023-11-21T06:20:08;96726.34;;;4.12;100.00
72210;BME280;60113;48.762;12.302;2023-11-21T06:22:39;96723.66;;;4.13;100.00
72210;BME280;60113;48.762;12.302;2023-11-21T06:25:06;96734.13;;;4.12;100.00
72210;BME280;60113;48.762;12.302;2023-11-21T06:27:38;96741.75;;;4.15;100.00
72210;BME280;60113;48.762;12.302;2023-11-21T06:30:04;96733.03;;;4.16;100.00
72210;BME280;60113;48.762;12.302;2023-11-21T06:32:32;96738.13;;;4.18;100.00
72210;BME280;60113;48.762;12.302;2023-11-21T06:34:57;96733.69;;;4.20;100.00
72210;BME280;60113;48.762;12.302;2023-11-21T06:37:30;96737.09;;;4.20;100.00
72210;BME280;60113;48.762;12.302;2023-11-21T06:39:56;96740.56;;;4.21;100.00
72210;BME280;60113;48.762;12.302;2023-11-21T06:42:23;96743.06;;;4.22;100.00
72210;BME280;60113;48.762;12.302;2023-11-21T06:44:49;96738.72;;;4.23;100.00
72210;BME280;60113;48.762;12.302;2023-11-21T06:47:18;96743.91;;;4.23;100.00
72210;BME280;60113;48.762;12.302;2023-11-21T06:49:45;96749.84;;;4.25;100.00
72210;BME280;60113;48.762;12.302;2023-11-21T06:52:13;96748.09;;;4.25;100.00
72210;BME280;60113;48.762;12.302;2023-11-21T06:54:38;96754.94;;;4.27;100.00
72210;BME280;60113;48.762;12.302;2023-11-21T06:57:04;96754.88;;;4.28;100.00
72210;BME280;60113;48.762;12.302;2023-11-21T06:59:29;96757.28;;;4.31;100.00
72210;BME280;60113;48.762;12.302;2023-11-21T07:01:55;96751.19;;;4.32;100.00
72210;BME280;60113;48.762;12.302;2023-11-21T07:04:21;96759.72;;;4.34;100.00
72210;BME280;60113;48.762;12.302;2023-11-21T07:06:46;96764.81;;;4.36;100.00
72210;BME280;60113;48.762;12.302;2023-11-21T07:09:12;96770.78;;;4.38;100.00
72210;BME280;60113;48.762;12.302;2023-11-21T07:11:37;96777.66;;;4.39;100.00
72210;BME280;60113;48.762;12.302;2023-11-21T07:14:04;96774.06;;;4.42;100.00
72210;BME280;60113;48.762;12.302;2023-11-21T07:16:35;96775.63;;;4.44;100.00
72210;BME280;60113;48.762;12.302;2023-11-21T07:19:04;96771.19;;;4.46;100.00
72210;BME280;60113;48.762;12.302;2023-11-21T07:21:34;96765.78;;;4.49;100.00
72210;BME280;60113;48.762;12.302;2023-11-21T07:24:00;96776.94;;;4.52;100.00
72210;BME280;60113;48.762;12.302;2023-11-21T07:26:26;96778.53;;;4.54;100.00
72210;BME280;60113;48.762;12.302;2023-11-21T07:28:52;96773.16;;;4.57;100.00
72210;BME280;60113;48.762;12.302;2023-11-21T07:31:17;96776.38;;;4.61;100.00
72210;BME280;60113;48.762;12.302;2023-11-21T07:33:45;96785.69;;;4.65;100.00
72210;BME280;60113;48.762;12.302;2023-11-21T07:36:12;96776.78;;;4.69;100.00
72210;BME280;60113;48.762;12.302;2023-11-21T07:38:38;96784.31;;;4.74;100.00
72210;BME280;60113;48.762;12.302;2023-11-21T07:41:04;96779.72;;;4.78;100.00
72210;BME280;60113;48.762;12.302;2023-11-21T07:43:30;96778.72;;;4.80;100.00
72210;BME280;60113;48.762;12.302;2023-11-21T07:46:01;96781.25;;;4.82;100.00
72210;BME280;60113;48.762;12.302;2023-11-21T07:48:28;96778.38;;;4.86;100.00
72210;BME280;60113;48.762;12.302;2023-11-21T07:50:54;96780.78;;;4.90;100.00
72210;BME280;60113;48.762;12.302;2023-11-21T07:53:19;96781.41;;;4.93;100.00
72210;BME280;60113;48.762;12.302;2023-11-21T07:55:45;96782.81;;;4.99;100.00
72210;BME280;60113;48.762;12.302;2023-11-21T07:58:12;96781.59;;;5.05;100.00
72210;BME280;60113;48.762;12.302;2023-11-21T08:00:38;96784.88;;;5.08;100.00
72210;BME280;60113;48.762;12.302;2023-11-21T08:03:04;96781.22;;;5.11;100.00
72210;BME280;60113;48.762;12.302;2023-11-21T08:05:31;96787.09;;;5.15;100.00
72210;BME280;60113;48.762;12.302;2023-11-21T08:07:57;96790.34;;;5.18;100.00
72210;BME280;60113;48.762;12.302;2023-11-21T08:10:23;96801.41;;;5.22;100.00
72210;BME280;60113;48.762;12.302;2023-11-21T08:12:49;96803.72;;;5.27;100.00
72210;BME280;60113;48.762;12.302;2023-11-21T08:15:17;96798.34;;;5.30;100.00
72210;BME280;60113;48.762;12.302;2023-11-21T08:17:42;96791.38;;;5.30;100.00
72210;BME280;60113;48.762;12.302;2023-11-21T08:20:09;96804.19;;;5.33;100.00
72210;BME280;60113;48.762;12.302;2023-11-21T08:22:36;96800.47;;;5.37;100.00
72210;BME280;60113;48.762;12.302;2023-11-21T08:25:02;96808.00;;;5.42;100.00
72210;BME280;60113;48.762;12.302;2023-11-21T08:27:29;96798.09;;;5.47;100.00
72210;BME280;60113;48.762;12.302;2023-11-21T08:29:54;96803.88;;;5.53;100.00
72210;BME280;60113;48.762;12.302;2023-11-21T08:32:21;96803.59;;;5.57;100.00
72210;BME280;60113;48.762;12.302;2023-11-21T08:34:47;96805.91;;;5.62;100.00
72210;BME280;60113;48.762;12.302;2023-11-21T08:37:17;96804.75;;;5.66;100.00
72210;BME280;60113;48.762;12.302;2023-11-21T08:39:45;96803.66;;;5.70;100.00
72210;BME280;60113;48.762;12.302;2023-11-21T08:42:11;96805.22;;;5.73;100.00
72210;BME280;60113;48.762;12.302;2023-11-21T08:44:36;96809.41;;;5.75;100.00
72210;BME280;60113;48.762;12.302;2023-11-21T08:47:01;96810.16;;;5.78;100.00
72210;BME280;60113;48.762;12.302;2023-11-21T08:49:28;96810.91;;;5.80;100.00
72210;BME280;60113;48.762;12.302;2023-11-21T08:51:54;96818.72;;;5.80;100.00
72210;BME280;60113;48.762;12.302;2023-11-21T08:54:21;96822.13;;;5.80;100.00
72210;BME280;60113;48.762;12.302;2023-11-21T08:56:46;96815.16;;;5.81;100.00
72210;BME280;60113;48.762;12.302;2023-11-21T08:59:13;96822.13;;;5.80;100.00
72210;BME280;60113;48.762;12.302;2023-11-21T09:01:39;96829.97;;;5.80;100.00
72210;BME280;60113;48.762;12.302;2023-11-21T09:04:06;96822.03;;;5.82;100.00
72210;BME280;60113;48.762;12.302;2023-11-21T09:06:31;96816.72;;;5.83;100.00
72210;BME280;60113;48.762;12.302;2023-11-21T09:08:57;96825.31;;;5.85;100.00
72210;BME280;60113;48.762;12.302;2023-11-21T09:11:23;96820.84;;;5.87;100.00
72210;BME280;60113;48.762;12.302;2023-11-21T09:13:51;96826.88;;;5.88;100.00
72210;BME280;60113;48.762;12.302;2023-11-21T09:16:17;96827.81;;;5.87;100.00
72210;BME280;60113;48.762;12.302;2023-11-21T09:18:42;96830.41;;;5.87;100.00
72210;BME280;60113;48.762;12.302;2023-11-21T09:21:08;96830.31;;;5.88;100.00
72210;BME280;60113;48.762;12.302;2023-11-21T09:23:34;96832.09;;;5.88;100.00
72210;BME280;60113;48.762;12.302;2023-11-21T09:26:00;96833.78;;;5.89;100.00
72210;BME280;60113;48.762;12.302;2023-11-21T09:28:26;96840.84;;;5.87;100.00
72210;BME280;60113;48.762;12.302;2023-11-21T09:30:53;96848.78;;;5.85;100.00
72210;BME280;60113;48.762;12.302;2023-11-21T09:33:18;96846.34;;;5.82;100.00
72210;BME280;60113;48.762;12.302;2023-11-21T09:35:43;96850.81;;;5.80;100.00
72210;BME280;60113;48.762;12.302;2023-11-21T09:38:11;96854.19;;;5.82;100.00
72210;BME280;60113;48.762;12.302;2023-11-21T09:40:37;96844.50;;;5.84;100.00
72210;BME280;60113;48.762;12.302;2023-11-21T09:43:07;96851.94;;;5.91;100.00
72210;BME280;60113;48.762;12.302;2023-11-21T09:45:38;96848.00;;;5.98;100.00
72210;BME280;60113;48.762;12.302;2023-11-21T09:48:04;96851.81;;;6.07;100.00
72210;BME280;60113;48.762;12.302;2023-11-21T09:50:32;96848.69;;;6.15;100.00
72210;BME280;60113;48.762;12.302;2023-11-21T09:53:17;96849.78;;;6.25;100.00
72210;BME280;60113;48.762;12.302;2023-11-21T09:55:48;96848.34;;;6.34;100.00
72210;BME280;60113;48.762;12.302;2023-11-21T09:58:15;96839.81;;;6.45;100.00
72210;BME280;60113;48.762;12.302;2023-11-21T10:00:42;96842.75;;;6.53;100.00
72210;BME280;60113;48.762;12.302;2023-11-21T10:03:08;96836.91;;;6.62;100.00
72210;BME280;60113;48.762;12.302;2023-11-21T10:05:35;96843.94;;;6.75;100.00
72210;BME280;60113;48.762;12.302;2023-11-21T10:08:07;96840.50;;;6.87;100.00
72210;BME280;60113;48.762;12.302;2023-11-21T10:10:32;96832.78;;;6.99;100.00
72210;BME280;60113;48.762;12.302;2023-11-21T10:13:01;96831.72;;;7.15;100.00
72210;BME280;60113;48.762;12.302;2023-11-21T10:15:29;96826.16;;;7.32;100.00
72210;BME280;60113;48.762;12.302;2023-11-21T10:17:55;96827.16;;;7.43;100.00
72210;BME280;60113;48.762;12.302;2023-11-21T10:20:20;96829.13;;;7.52;100.00
72210;BME280;60113;48.762;12.302;2023-11-21T10:22:46;96828.91;;;7.55;100.00
72210;BME280;60113;48.762;12.302;2023-11-21T10:25:13;96826.59;;;7.63;100.00
72210;BME280;60113;48.762;12.302;2023-11-21T10:27:43;96822.81;;;7.68;100.00
72210;BME280;60113;48.762;12.302;2023-11-21T10:30:12;96826.91;;;7.72;100.00
72210;BME280;60113;48.762;12.302;2023-11-21T10:32:39;96824.41;;;7.70;100.00
72210;BME280;60113;48.762;12.302;2023-11-21T10:35:06;96826.50;;;7.65;100.00
72210;BME280;60113;48.762;12.302;2023-11-21T10:37:39;96826.94;;;7.59;100.00
72210;BME280;60113;48.762;12.302;2023-11-21T10:40:08;96828.53;;;7.48;100.00
72210;BME280;60113;48.762;12.302;2023-11-21T10:42:38;96829.19;;;7.39;100.00
72210;BME280;60113;48.762;12.302;2023-11-21T10:45:05;96836.09;;;7.27;100.00
72210;BME280;60113;48.762;12.302;2023-11-21T10:47:38;96836.44;;;7.22;100.00
72210;BME280;60113;48.762;12.302;2023-11-21T10:50:05;96826.28;;;7.18;100.00
72210;BME280;60113;48.762;12.302;2023-11-21T10:52:30;96830.78;;;7.16;100.00
72210;BME280;60113;48.762;12.302;2023-11-21T10:54:55;96833.50;;;7.14;100.00
72210;BME280;60113;48.762;12.302;2023-11-21T10:57:24;96835.91;;;7.17;100.00
72210;BME280;60113;48.762;12.302;2023-11-21T10:59:54;96836.53;;;7.21;100.00
72210;BME280;60113;48.762;12.302;2023-11-21T11:02:26;96841.66;;;7.22;100.00
72210;BME280;60113;48.762;12.302;2023-11-21T11:04:54;96837.97;;;7.25;100.00
72210;BME280;60113;48.762;12.302;2023-11-21T11:07:22;96831.69;;;7.28;100.00
72210;BME280;60113;48.762;12.302;2023-11-21T11:09:52;96830.78;;;7.29;100.00
72210;BME280;60113;48.762;12.302;2023-11-21T11:12:18;96833.38;;;7.29;100.00
72210;BME280;60113;48.762;12.302;2023-11-21T11:14:44;96829.41;;;7.23;100.00
72210;BME280;60113;48.762;12.302;2023-11-21T11:17:10;96838.09;;;7.23;100.00
72210;BME280;60113;48.762;12.302;2023-11-21T11:19:36;96835.56;;;7.22;100.00
72210;BME280;60113;48.762;12.302;2023-11-21T11:22:13;96835.16;;;7.15;100.00
72210;BME280;60113;48.762;12.302;2023-11-21T11:27:48;96835.78;;;7.06;100.00
72210;BME280;60113;48.762;12.302;2023-11-21T11:35:51;96829.63;;;7.07;100.00
72210;BME280;60113;48.762;12.302;2023-11-21T11:38:21;96826.19;;;7.06;100.00
72210;BME280;60113;48.762;12.302;2023-11-21T11:40:52;96832.34;;;7.05;100.00
72210;BME280;60113;48.762;12.302;2023-11-21T11:43:27;96831.63;;;7.03;100.00
72210;BME280;60113;48.762;12.302;2023-11-21T11:45:59;96832.34;;;7.05;100.00
72210;BME280;60113;48.762;12.302;2023-11-21T11:48:28;96831.72;;;7.02;100.00
72210;BME280;60113;48.762;12.302;2023-11-21T11:51:05;96838.22;;;6.96;100.00
72210;BME280;60113;48.762;12.302;2023-11-21T11:53:51;96831.59;;;6.90;100.00
72210;BME280;60113;48.762;12.302;2023-11-21T11:56:32;96832.56;;;6.89;100.00
72210;BME280;60113;48.762;12.302;2023-11-21T11:59:01;96829.50;;;6.82;100.00
72210;BME280;60113;48.762;12.302;2023-11-21T12:01:35;96840.47;;;6.74;100.00
72210;BME280;60113;48.762;12.302;2023-11-21T12:06:56;96834.72;;;6.56;100.00
72210;BME280;60113;48.762;12.302;2023-11-21T12:09:24;96836.72;;;6.53;100.00
72210;BME280;60113;48.762;12.302;2023-11-21T12:11:55;96842.34;;;6.46;100.00
72210;BME280;60113;48.762;12.302;2023-11-21T12:14:22;96838.13;;;6.44;100.00
72210;BME280;60113;48.762;12.302;2023-11-21T12:16:48;96848.78;;;6.41;100.00
72210;BME280;60113;48.762;12.302;2023-11-21T12:19:14;96841.34;;;6.34;100.00
72210;BME280;60113;48.762;12.302;2023-11-21T12:21:40;96846.88;;;6.30;100.00
72210;BME280;60113;48.762;12.302;2023-11-21T12:24:14;96839.34;;;6.25;100.00
72210;BME280;60113;48.762;12.302;2023-11-21T12:26:40;96844.66;;;6.23;100.00
72210;BME280;60113;48.762;12.302;2023-11-21T12:29:05;96848.22;;;6.22;100.00
72210;BME280;60113;48.762;12.302;2023-11-21T12:31:33;96836.09;;;6.21;100.00
72210;BME280;60113;48.762;12.302;2023-11-21T12:33:59;96842.03;;;6.23;100.00
72210;BME280;60113;48.762;12.302;2023-11-21T12:36:26;96839.53;;;6.22;100.00
72210;BME280;60113;48.762;12.302;2023-11-21T12:38:54;96835.06;;;6.24;100.00
72210;BME280;60113;48.762;12.302;2023-11-21T12:41:19;96836.72;;;6.25;100.00
72210;BME280;60113;48.762;12.302;2023-11-21T12:43:46;96833.19;;;6.26;100.00
72210;BME280;60113;48.762;12.302;2023-11-21T12:46:13;96839.97;;;6.29;100.00
72210;BME280;60113;48.762;12.302;2023-11-21T12:48:44;96836.22;;;6.33;100.00
72210;BME280;60113;48.762;12.302;2023-11-21T12:51:11;96845.75;;;6.34;100.00
72210;BME280;60113;48.762;12.302;2023-11-21T12:53:39;96845.66;;;6.35;100.00
72210;BME280;60113;48.762;12.302;2023-11-21T12:56:12;96848.97;;;6.37;100.00
72210;BME280;60113;48.762;12.302;2023-11-21T12:58:38;96851.47;;;6.39;100.00
72210;BME280;60113;48.762;12.302;2023-11-21T13:01:05;96847.13;;;6.40;100.00